Time;durP1;ratioP1;P1;durP2;ratioP2;P2;SDS_P1;SDS_P2;PMS_P1;PMS_P2;Temp;Humidity;BMP_temperature;BMP_pressure;BME280_temperature;BME280_humidity;BME280_pressure;Samples;Min_cycle;Max_cycle;Signal;HPM_P1;HPM_P2
2022/03/11 00:02:22;;;;;;;9.40;5.10;;;6.60;90.60;;;;;;5062151;28;20574;-67
2022/03/11 00:04:49;;;;;;;10.27;5.63;;;6.70;91.10;;;;;;5060387;28;20551;-68
2022/03/11 00:07:16;;;;;;;9.47;4.90;;;6.60;91.30;;;;;;5061351;28;20427;-69
2022/03/11 00:09:43;;;;;;;10.17;5.77;;;6.40;92.40;;;;;;5059817;28;20449;-67
2022/03/11 00:12:10;;;;;;;16.30;7.13;;;6.40;92.30;;;;;;5061131;28;20457;-69
2022/03/11 00:14:37;;;;;;;16.53;5.17;;;6.40;91.70;;;;;;5058111;28;20563;-68
2022/03/11 00:17:04;;;;;;;11.10;6.73;;;6.40;92.10;;;;;;5063904;28;20522;-68
2022/03/11 00:19:33;;;;;;;15.33;4.70;;;6.40;92.80;;;;;;5066591;28;20594;-68
2022/03/11 00:21:59;;;;;;;9.90;6.20;;;6.30;93.60;;;;;;5061790;27;20970;-67
2022/03/11 00:24:26;;;;;;;7.53;4.57;;;6.20;93.90;;;;;;5060782;28;20465;-68
2022/03/11 00:26:53;;;;;;;7.33;4.67;;;6.20;93.70;;;;;;5061893;28;20612;-67
2022/03/11 00:29:20;;;;;;;11.77;5.67;;;6.20;93.50;;;;;;5062390;28;20451;-67
2022/03/11 00:31:47;;;;;;;8.63;4.43;;;6.20;93.90;;;;;;5062857;28;20551;-67
2022/03/11 00:34:14;;;;;;;11.33;7.57;;;6.20;94.70;;;;;;5063862;28;20449;-67
2022/03/11 00:36:44;;;;;;;10.23;6.20;;;6.20;95.00;;;;;;5058308;28;20466;-67
2022/03/11 00:39:11;;;;;;;7.17;4.67;;;6.10;95.70;;;;;;5061198;28;20477;-66
2022/03/11 00:41:38;;;;;;;8.80;5.43;;;6.00;95.80;;;;;;5063043;28;20984;-69
2022/03/11 00:44:05;;;;;;;10.27;6.00;;;6.00;96.20;;;;;;5055582;28;20455;-66
2022/03/11 00:46:32;;;;;;;8.03;4.70;;;5.90;96.30;;;;;;5057761;28;21133;-66
2022/03/11 00:48:59;;;;;;;5.03;4.53;;;5.80;96.90;;;;;;5059738;28;20448;-67
2022/03/11 00:51:25;;;;;;;6.73;5.10;;;5.80;97.20;;;;;;5059563;28;20438;-67
2022/03/11 00:53:54;;;;;;;9.50;6.43;;;5.60;97.50;;;;;;5059230;28;20575;-67
2022/03/11 00:56:21;;;;;;;9.50;4.33;;;5.60;98.50;;;;;;5060222;27;20590;-66
2022/03/11 00:58:48;;;;;;;7.00;4.87;;;5.50;99.00;;;;;;5061724;28;20486;-68
2022/03/11 01:01:14;;;;;;;15.17;6.00;;;5.50;99.40;;;;;;5062901;28;20462;-66
2022/03/11 01:03:41;;;;;;;9.97;5.03;;;5.30;99.90;;;;;;5062722;28;20454;-68
2022/03/11 01:06:08;;;;;;;8.57;4.30;;;5.20;99.90;;;;;;5059602;28;21263;-67
2022/03/11 01:08:35;;;;;;;7.73;4.90;;;5.20;99.90;;;;;;5062038;28;20562;-67
2022/03/11 01:11:04;;;;;;;7.40;5.57;;;5.10;99.90;;;;;;5067162;28;20937;-68
2022/03/11 01:13:30;;;;;;;16.80;5.37;;;5.00;99.90;;;;;;5060819;28;20936;-66
2022/03/11 01:15:57;;;;;;;10.33;6.10;;;4.90;99.90;;;;;;5058692;28;20472;-66
2022/03/11 01:18:24;;;;;;;11.73;6.23;;;4.80;99.90;;;;;;5058660;28;20975;-67
2022/03/11 01:20:51;;;;;;;10.43;5.80;;;4.90;99.90;;;;;;5055460;28;20461;-68
2022/03/11 01:23:17;;;;;;;6.33;5.07;;;5.00;99.90;;;;;;5060547;28;20468;-66
2022/03/11 01:25:44;;;;;;;11.47;6.90;;;4.90;99.90;;;;;;5056354;28;20642;-66
2022/03/11 01:28:13;;;;;;;9.80;6.30;;;5.10;99.90;;;;;;5057177;28;20484;-66
2022/03/11 01:30:40;;;;;;;9.27;5.70;;;5.20;99.90;;;;;;5061604;28;20441;-66
2022/03/11 01:33:07;;;;;;;14.47;6.30;;;5.30;99.90;;;;;;5059339;28;20760;-66
2022/03/11 01:35:34;;;;;;;11.23;5.93;;;5.20;99.90;;;;;;5060833;28;22533;-67
2022/03/11 01:38:02;;;;;;;12.17;5.60;;;5.20;99.90;;;;;;5056621;28;20456;-67
2022/03/11 01:40:28;;;;;;;7.50;5.77;;;5.20;99.90;;;;;;5059721;28;20459;-68
2022/03/11 01:42:55;;;;;;;9.97;5.07;;;5.10;99.90;;;;;;5056253;28;20436;-67
2022/03/11 01:45:23;;;;;;;8.93;5.80;;;5.10;99.90;;;;;;5053811;28;21017;-67
2022/03/11 01:47:52;;;;;;;10.20;6.07;;;5.20;99.90;;;;;;5061543;28;20582;-67
2022/03/11 01:50:18;;;;;;;14.53;5.27;;;5.20;99.90;;;;;;5054294;28;20464;-67
2022/03/11 01:52:45;;;;;;;7.83;5.03;;;5.10;99.90;;;;;;5061666;28;20457;-67
2022/03/11 01:55:12;;;;;;;5.20;4.70;;;5.00;99.90;;;;;;5058495;28;20431;-67
2022/03/11 01:57:39;;;;;;;7.87;4.30;;;5.00;99.90;;;;;;5058890;28;20566;-67
2022/03/11 02:00:08;;;;;;;12.20;4.47;;;4.90;99.90;;;;;;5059616;27;20614;-66
2022/03/11 02:02:36;;;;;;;7.90;5.27;;;4.50;99.90;;;;;;5068099;28;20542;-66
2022/03/11 02:05:03;;;;;;;8.17;4.07;;;4.30;99.90;;;;;;5064601;28;21074;-66
2022/03/11 02:07:30;;;;;;;5.80;3.40;;;4.50;99.90;;;;;;5065367;28;20557;-66
2022/03/11 02:09:57;;;;;;;7.90;4.73;;;4.40;99.90;;;;;;5062042;28;20459;-66
2022/03/11 02:12:31;;;;;;;6.17;4.20;;;4.50;99.90;;;;;;5065590;28;21038;-66
2022/03/11 02:14:58;;;;;;;7.63;4.17;;;4.60;99.90;;;;;;5060001;28;20444;-69
2022/03/11 02:17:24;;;;;;;8.57;4.43;;;4.60;99.90;;;;;;5059836;28;20508;-68
2022/03/11 02:19:52;;;;;;;10.30;4.83;;;4.50;99.90;;;;;;5062420;28;20459;-69
2022/03/11 02:22:24;;;;;;;13.50;5.30;;;4.60;99.90;;;;;;5060841;28;20968;-69
2022/03/11 02:24:53;;;;;;;9.53;5.50;;;4.40;99.90;;;;;;5064649;28;21041;-69
2022/03/11 02:27:20;;;;;;;6.87;4.00;;;4.30;99.90;;;;;;5058662;28;20528;-69
2022/03/11 02:29:47;;;;;;;5.80;4.37;;;4.40;99.90;;;;;;5061428;28;20575;-68
2022/03/11 02:32:14;;;;;;;10.50;4.53;;;4.60;99.90;;;;;;5061492;28;20910;-68
2022/03/11 02:34:40;;;;;;;6.80;4.63;;;4.60;99.90;;;;;;5055713;28;20584;-69
2022/03/11 02:37:09;;;;;;;10.20;4.53;;;4.50;99.90;;;;;;5061546;28;20466;-69
2022/03/11 02:39:36;;;;;;;25.13;4.90;;;4.40;99.90;;;;;;5058664;28;20585;-69
2022/03/11 02:42:04;;;;;;;5.37;4.60;;;4.20;99.90;;;;;;5062451;28;20709;-69
2022/03/11 02:44:31;;;;;;;5.40;3.73;;;4.00;99.90;;;;;;5066624;27;20425;-69
2022/03/11 02:46:59;;;;;;;4.43;2.60;;;4.00;99.90;;;;;;5062589;28;20565;-68
2022/03/11 02:49:27;;;;;;;8.00;3.03;;;4.00;99.90;;;;;;5064197;28;20489;-69
2022/03/11 02:51:56;;;;;;;11.77;4.30;;;4.10;99.90;;;;;;5064407;28;20882;-69
2022/03/11 02:54:24;;;;;;;9.77;4.10;;;4.00;99.90;;;;;;5066604;28;20481;-69
2022/03/11 02:56:51;;;;;;;6.50;4.47;;;4.10;99.90;;;;;;5058886;28;20603;-69
2022/03/11 02:59:19;;;;;;;9.20;4.23;;;4.10;99.90;;;;;;5049785;28;20476;-68
2022/03/11 03:01:46;;;;;;;7.03;3.97;;;4.10;99.90;;;;;;5067590;27;20486;-69
2022/03/11 03:04:13;;;;;;;6.63;3.53;;;4.00;99.90;;;;;;5064335;28;20515;-69
2022/03/11 03:06:40;;;;;;;5.93;3.30;;;4.00;99.90;;;;;;5061588;28;20440;-69
2022/03/11 03:09:07;;;;;;;6.67;3.70;;;4.10;99.90;;;;;;5063590;28;20594;-69
2022/03/11 03:11:33;;;;;;;6.60;4.60;;;4.20;99.90;;;;;;5062326;28;20438;-69
2022/03/11 03:14:00;;;;;;;8.43;3.93;;;4.20;99.90;;;;;;5066882;28;20538;-71
2022/03/11 03:16:28;;;;;;;8.70;5.00;;;4.20;99.90;;;;;;5063754;28;20553;-69
2022/03/11 03:18:55;;;;;;;3.37;2.70;;;4.20;99.90;;;;;;5066094;28;20472;-69
2022/03/11 03:21:27;;;;;;;7.00;4.40;;;4.20;99.90;;;;;;5064045;28;21065;-68
2022/03/11 03:23:53;;;;;;;5.83;4.17;;;4.20;99.90;;;;;;5062210;27;20622;-69
2022/03/11 03:26:20;;;;;;;18.73;4.97;;;4.20;99.90;;;;;;5063088;28;20579;-70
2022/03/11 03:28:47;;;;;;;13.20;5.00;;;4.30;99.90;;;;;;5066777;28;20448;-70
2022/03/11 03:31:17;;;;;;;8.90;5.80;;;4.40;99.90;;;;;;5062591;27;20428;-70
2022/03/11 03:33:45;;;;;;;7.00;4.77;;;4.50;99.90;;;;;;5063577;28;20457;-69
2022/03/11 03:36:11;;;;;;;8.37;4.60;;;4.60;99.90;;;;;;5058150;28;21150;-69
2022/03/11 03:38:38;;;;;;;9.13;3.60;;;4.70;99.90;;;;;;5065304;28;20500;-70
2022/03/11 03:41:05;;;;;;;7.67;4.23;;;4.70;99.90;;;;;;5060944;28;20824;-70
2022/03/11 03:43:31;;;;;;;9.50;5.80;;;4.70;99.90;;;;;;5068560;28;20435;-70
2022/03/11 03:45:58;;;;;;;8.67;4.70;;;4.80;99.90;;;;;;5057476;28;21197;-69
2022/03/11 03:48:28;;;;;;;12.70;4.47;;;4.80;99.90;;;;;;5061367;28;22730;-70
2022/03/11 03:50:56;;;;;;;5.20;3.37;;;4.80;99.90;;;;;;5060151;28;21333;-68
2022/03/11 03:53:23;;;;;;;9.70;5.63;;;4.70;99.90;;;;;;5056969;28;20439;-70
2022/03/11 03:55:50;;;;;;;21.57;4.80;;;4.70;99.90;;;;;;5061713;28;20931;-69
2022/03/11 03:58:16;;;;;;;7.47;4.70;;;4.70;99.90;;;;;;5057411;28;20480;-69
2022/03/11 04:00:43;;;;;;;4.70;3.60;;;4.60;99.90;;;;;;5058745;28;20548;-69
2022/03/11 04:03:10;;;;;;;5.20;3.50;;;4.60;99.90;;;;;;5057215;28;20701;-69
2022/03/11 04:05:39;;;;;;;5.30;3.37;;;4.70;99.90;;;;;;5059033;28;21199;-69
2022/03/11 04:08:07;;;;;;;8.93;5.13;;;4.80;99.90;;;;;;5050764;28;20488;-70
2022/03/11 04:10:34;;;;;;;8.53;5.83;;;4.90;99.90;;;;;;5057500;28;20463;-69
2022/03/11 04:13:00;;;;;;;5.83;3.83;;;4.90;99.90;;;;;;5067873;28;20960;-69
2022/03/11 04:15:27;;;;;;;7.33;3.57;;;4.90;99.90;;;;;;5057992;28;20526;-69
2022/03/11 04:17:54;;;;;;;5.17;3.73;;;4.90;99.90;;;;;;5058525;28;20528;-68
2022/03/11 04:20:21;;;;;;;11.00;3.37;;;5.00;99.90;;;;;;5065053;28;20540;-68
2022/03/11 04:22:47;;;;;;;9.70;4.47;;;5.20;99.90;;;;;;5066435;28;20501;-68
2022/03/11 04:25:16;;;;;;;10.87;5.17;;;5.20;99.90;;;;;;5065131;28;20464;-69
2022/03/11 04:27:43;;;;;;;9.30;3.97;;;5.10;99.90;;;;;;5065650;28;20452;-69
2022/03/11 04:30:10;;;;;;;10.40;4.53;;;5.10;99.90;;;;;;5062330;28;20782;-69
2022/03/11 04:32:37;;;;;;;4.43;2.60;;;5.20;99.90;;;;;;5059324;28;20453;-69
2022/03/11 04:35:05;;;;;;;8.80;5.37;;;5.20;99.90;;;;;;5062376;28;20502;-70
2022/03/11 04:37:32;;;;;;;6.43;3.50;;;5.20;99.90;;;;;;5058503;28;20580;-70
2022/03/11 04:39:58;;;;;;;6.43;3.20;;;5.30;99.90;;;;;;5062393;28;21023;-70
2022/03/11 04:42:27;;;;;;;5.03;3.67;;;5.40;99.90;;;;;;5058409;28;21046;-70
2022/03/11 04:44:53;;;;;;;9.43;4.03;;;5.30;99.90;;;;;;5060029;28;20724;-70
2022/03/11 04:47:20;;;;;;;8.10;4.70;;;5.20;99.90;;;;;;5056089;28;20466;-71
2022/03/11 04:49:47;;;;;;;5.57;3.50;;;5.10;99.90;;;;;;5062156;28;21244;-70
2022/03/11 04:52:14;;;;;;;7.67;3.83;;;5.00;99.90;;;;;;5064154;28;20433;-68
2022/03/11 04:54:41;;;;;;;5.77;3.33;;;4.90;99.90;;;;;;5071201;28;20471;-69
2022/03/11 04:57:07;;;;;;;8.40;4.47;;;4.90;99.90;;;;;;5071107;28;20462;-70
2022/03/11 04:59:35;;;;;;;7.40;3.77;;;4.90;99.90;;;;;;5068793;28;20443;-69
2022/03/11 05:02:02;;;;;;;8.87;3.97;;;5.00;99.90;;;;;;5070408;28;20559;-69
2022/03/11 05:04:29;;;;;;;8.50;4.60;;;5.00;99.90;;;;;;5063369;28;20471;-70
2022/03/11 05:06:56;;;;;;;7.77;4.10;;;4.90;99.90;;;;;;5059895;28;20551;-69
2022/03/11 05:09:22;;;;;;;4.57;3.33;;;5.00;99.90;;;;;;5061377;28;20518;-70
2022/03/11 05:11:49;;;;;;;5.07;3.70;;;5.00;99.90;;;;;;5048156;28;20456;-69
2022/03/11 05:14:17;;;;;;;6.60;5.33;;;5.00;99.90;;;;;;5077258;28;20970;-69
2022/03/11 05:16:45;;;;;;;7.57;4.20;;;4.90;99.90;;;;;;5073527;28;20516;-68
2022/03/11 05:19:12;;;;;;;6.87;3.60;;;4.90;99.90;;;;;;5086167;28;20455;-70
2022/03/11 05:21:38;;;;;;;5.30;3.43;;;5.10;99.90;;;;;;5070781;28;20544;-69
2022/03/11 05:24:06;;;;;;;8.13;5.20;;;5.30;99.90;;;;;;5069048;28;20429;-70
2022/03/11 05:26:33;;;;;;;7.03;4.53;;;5.50;99.90;;;;;;5077124;28;20540;-69
2022/03/11 05:29:00;;;;;;;5.57;4.60;;;5.50;99.90;;;;;;5078043;28;20488;-69
2022/03/11 05:31:28;;;;;;;7.70;5.03;;;5.50;99.90;;;;;;5072481;28;20595;-69
2022/03/11 05:33:56;;;;;;;8.60;3.67;;;5.50;99.90;;;;;;5065702;28;20936;-69
2022/03/11 05:36:23;;;;;;;6.20;4.87;;;5.60;99.90;;;;;;5071565;28;20457;-69
2022/03/11 05:38:50;;;;;;;6.77;4.77;;;5.50;99.90;;;;;;5067668;28;20462;-68
2022/03/11 05:41:17;;;;;;;7.37;4.30;;;5.50;99.90;;;;;;5069023;28;22076;-69
2022/03/11 05:43:44;;;;;;;4.90;3.83;;;5.40;99.90;;;;;;5070740;28;20446;-69
2022/03/11 05:46:11;;;;;;;5.17;4.07;;;5.40;99.90;;;;;;5072236;28;20474;-70
2022/03/11 05:48:37;;;;;;;6.27;2.80;;;5.30;99.90;;;;;;5064923;28;20578;-69
2022/03/11 05:51:06;;;;;;;6.67;4.53;;;5.20;99.90;;;;;;5061715;28;24711;-68
2022/03/11 05:53:33;;;;;;;4.40;3.50;;;5.20;99.90;;;;;;5069037;28;20915;-69
2022/03/11 05:55:59;;;;;;;6.30;5.57;;;5.10;99.90;;;;;;5071984;28;21040;-69
2022/03/11 05:58:26;;;;;;;11.47;4.80;;;5.10;99.90;;;;;;5073333;27;20513;-68
2022/03/11 06:00:53;;;;;;;5.37;3.43;;;5.10;99.90;;;;;;5075131;28;20469;-70
2022/03/11 06:03:20;;;;;;;10.83;4.13;;;5.20;99.90;;;;;;5071878;28;20471;-70
2022/03/11 06:05:47;;;;;;;7.53;4.33;;;5.20;99.90;;;;;;5074257;28;20444;-70
2022/03/11 06:08:15;;;;;;;4.80;4.30;;;5.30;99.90;;;;;;5075738;28;20451;-70
2022/03/11 06:10:42;;;;;;;2.70;2.50;;;5.40;99.90;;;;;;5076707;28;20440;-70
2022/03/11 06:13:09;;;;;;;8.80;4.10;;;5.30;99.90;;;;;;5071494;28;20441;-67
2022/03/11 06:15:36;;;;;;;8.33;4.57;;;5.40;99.90;;;;;;5072496;28;20440;-67
2022/03/11 06:18:02;;;;;;;14.23;4.47;;;5.60;99.90;;;;;;5072787;28;21063;-67
2022/03/11 06:20:29;;;;;;;7.03;4.50;;;5.70;99.90;;;;;;5069300;28;20435;-67
2022/03/11 06:22:56;;;;;;;14.80;4.70;;;5.80;99.90;;;;;;5072283;28;20599;-69
2022/03/11 06:25:24;;;;;;;15.73;6.10;;;6.10;99.90;;;;;;5071942;28;20448;-69
2022/03/11 06:27:51;;;;;;;8.73;4.33;;;6.40;99.90;;;;;;5071739;28;20471;-68
2022/03/11 06:30:18;;;;;;;10.10;4.43;;;6.20;99.90;;;;;;5072697;27;20443;-67
2022/03/11 06:32:47;;;;;;;8.63;4.57;;;6.10;99.90;;;;;;5073222;27;20503;-66
2022/03/11 06:35:15;;;;;;;11.40;4.43;;;6.30;99.60;;;;;;5077209;28;20531;-66
2022/03/11 06:37:43;;;;;;;14.20;4.33;;;6.40;99.70;;;;;;5075461;27;21450;-68
2022/03/11 06:40:11;;;;;;;15.27;7.63;;;6.60;99.00;;;;;;5075891;28;20465;-67
2022/03/11 06:42:40;;;;;;;8.07;5.17;;;6.90;98.70;;;;;;5074295;28;20456;-68
2022/03/11 06:45:08;;;;;;;13.60;6.20;;;7.20;98.40;;;;;;5069297;28;21215;-68
2022/03/11 06:47:35;;;;;;;14.10;5.87;;;7.20;98.00;;;;;;5072282;28;20446;-68
2022/03/11 06:50:03;;;;;;;19.27;9.73;;;7.20;98.20;;;;;;5070549;28;20575;-67
2022/03/11 06:52:29;;;;;;;13.53;5.10;;;7.20;97.40;;;;;;5072830;28;20484;-68
2022/03/11 06:54:56;;;;;;;13.37;5.90;;;7.20;95.60;;;;;;5071242;28;20438;-68
2022/03/11 06:57:22;;;;;;;9.80;5.73;;;7.20;95.50;;;;;;5072274;28;20459;-67
2022/03/11 06:59:50;;;;;;;7.20;2.90;;;7.10;95.00;;;;;;5070455;28;20466;-69
2022/03/11 07:02:18;;;;;;;7.50;5.50;;;7.00;94.80;;;;;;5070651;28;20548;-70
2022/03/11 07:04:45;;;;;;;12.00;4.43;;;6.90;95.60;;;;;;5073902;28;20489;-69
2022/03/11 07:07:12;;;;;;;12.20;6.67;;;6.90;96.10;;;;;;5075650;28;20457;-69
2022/03/11 07:09:38;;;;;;;6.23;3.60;;;7.00;95.30;;;;;;5072245;28;20601;-69
2022/03/11 07:12:06;;;;;;;8.77;4.27;;;7.00;94.80;;;;;;5070234;28;20477;-69
2022/03/11 07:14:35;;;;;;;7.47;6.10;;;7.10;93.80;;;;;;5072294;28;20428;-69
2022/03/11 07:17:03;;;;;;;13.03;9.00;;;7.30;93.10;;;;;;5069885;28;20450;-69
2022/03/11 07:19:30;;;;;;;10.40;5.77;;;7.50;91.10;;;;;;5073979;28;20555;-69
2022/03/11 07:21:58;;;;;;;8.23;4.53;;;7.50;91.10;;;;;;5070181;28;20494;-69
2022/03/11 07:24:25;;;;;;;9.70;4.73;;;7.50;91.80;;;;;;5072056;28;20435;-69
2022/03/11 07:26:52;;;;;;;11.40;5.90;;;7.50;92.10;;;;;;5071948;28;20461;-68
2022/03/11 07:29:19;;;;;;;2.53;2.10;;;7.50;91.00;;;;;;5070613;28;20481;-69
2022/03/11 07:31:46;;;;;;;2.67;2.23;;;7.70;88.80;;;;;;5070862;28;20428;-69
2022/03/11 07:34:14;;;;;;;6.87;3.70;;;7.80;88.10;;;;;;5065625;28;20481;-69
2022/03/11 07:36:41;;;;;;;7.73;3.90;;;7.90;86.40;;;;;;5072752;28;20827;-69
2022/03/11 07:39:09;;;;;;;14.93;6.67;;;8.00;86.20;;;;;;5076616;28;20542;-69
2022/03/11 07:41:36;;;;;;;9.00;4.80;;;8.10;85.20;;;;;;5073941;27;20432;-69
2022/03/11 07:44:04;;;;;;;8.73;7.20;;;8.30;84.10;;;;;;5073528;28;20569;-68
2022/03/11 07:46:31;;;;;;;10.50;7.53;;;8.60;81.60;;;;;;5072096;28;20436;-68
2022/03/11 07:48:58;;;;;;;10.80;4.90;;;8.90;81.50;;;;;;5073701;28;21109;-69
2022/03/11 07:51:26;;;;;;;12.83;6.83;;;9.40;80.00;;;;;;5075210;28;21949;-70
2022/03/11 07:53:53;;;;;;;12.17;5.63;;;9.50;77.90;;;;;;5067678;28;20836;-70
2022/03/11 07:56:20;;;;;;;3.57;2.30;;;9.80;75.10;;;;;;5074101;28;20431;-68
2022/03/11 07:58:46;;;;;;;6.27;3.43;;;9.90;74.00;;;;;;5071431;28;20478;-68
2022/03/11 08:01:14;;;;;;;7.50;5.07;;;9.40;72.80;;;;;;5072201;28;20439;-68
2022/03/11 08:03:42;;;;;;;10.50;6.30;;;9.30;73.70;;;;;;5072173;28;21115;-69
2022/03/11 08:06:10;;;;;;;8.57;4.63;;;9.50;74.00;;;;;;5074684;28;20550;-68
2022/03/11 08:08:38;;;;;;;9.20;4.20;;;9.40;73.50;;;;;;5074172;28;20501;-69
2022/03/11 08:11:06;;;;;;;8.77;3.30;;;9.10;73.40;;;;;;5069317;28;20424;-69
2022/03/11 08:13:34;;;;;;;9.93;5.80;;;9.20;73.40;;;;;;5087070;28;20516;-69
2022/03/11 08:16:01;;;;;;;6.40;3.20;;;9.40;73.70;;;;;;5086612;28;20464;-69
2022/03/11 08:18:28;;;;;;;3.70;3.40;;;9.80;71.20;;;;;;5082710;28;20523;-69
2022/03/11 08:20:55;;;;;;;4.60;3.73;;;9.90;71.80;;;;;;5079571;28;20461;-69
2022/03/11 08:23:21;;;;;;;8.83;4.73;;;10.20;69.80;;;;;;5083046;28;20519;-69
2022/03/11 08:25:50;;;;;;;6.27;3.53;;;10.50;67.80;;;;;;5083468;28;21030;-69
2022/03/11 08:28:21;;;;;;;8.37;5.27;;;10.30;66.70;;;;;;5082348;28;20988;-69
2022/03/11 08:30:48;;;;;;;6.37;4.53;;;10.10;67.50;;;;;;5084160;28;20454;-69
2022/03/11 08:33:14;;;;;;;8.60;4.93;;;10.40;66.70;;;;;;5085586;28;21042;-69
2022/03/11 08:35:41;;;;;;;3.30;3.00;;;10.90;67.40;;;;;;5084502;28;20535;-69
2022/03/11 08:38:08;;;;;;;5.60;3.97;;;11.60;63.50;;;;;;5079563;28;20444;-69
2022/03/11 08:40:35;;;;;;;5.73;4.93;;;11.50;62.60;;;;;;5087373;28;20466;-69
2022/03/11 08:43:03;;;;;;;5.07;3.87;;;11.80;62.70;;;;;;5090493;27;21095;-69
2022/03/11 08:45:32;;;;;;;13.90;6.83;;;12.30;60.60;;;;;;5087710;28;20675;-69
2022/03/11 08:47:59;;;;;;;7.77;5.03;;;12.80;61.20;;;;;;5071609;28;20485;-69
2022/03/11 08:50:26;;;;;;;10.63;6.60;;;13.40;58.50;;;;;;5070096;28;20463;-69
2022/03/11 08:52:53;;;;;;;13.33;7.03;;;13.70;57.50;;;;;;5071719;28;20477;-69
2022/03/11 08:55:20;;;;;;;6.47;5.43;;;14.30;56.00;;;;;;5068165;28;20507;-68
2022/03/11 08:57:49;;;;;;;3.60;3.30;;;14.40;54.40;;;;;;5073413;28;20894;-70
2022/03/11 09:00:19;;;;;;;7.67;6.63;;;13.70;53.90;;;;;;5074877;28;20981;-69
2022/03/11 09:02:47;;;;;;;7.67;6.87;;;13.50;54.40;;;;;;5071187;28;20574;-69
2022/03/11 09:05:17;;;;;;;8.57;4.93;;;13.40;54.40;;;;;;5077531;28;20554;-69
2022/03/11 09:07:44;;;;;;;11.90;5.17;;;13.60;53.60;;;;;;5079877;28;20481;-70
2022/03/11 09:10:13;;;;;;;11.87;6.23;;;13.90;53.40;;;;;;5086522;28;20454;-70
2022/03/11 09:12:40;;;;;;;12.17;7.23;;;14.80;53.10;;;;;;5084886;28;20456;-70
2022/03/11 09:15:09;;;;;;;8.13;5.27;;;16.00;51.90;;;;;;5081529;28;20468;-70
2022/03/11 09:17:37;;;;;;;4.70;3.00;;;17.10;49.80;;;;;;5084440;28;24436;-70
2022/03/11 09:20:06;;;;;;;11.53;9.50;;;17.30;48.10;;;;;;5069916;28;20529;-70
2022/03/11 09:22:33;;;;;;;14.53;7.60;;;17.30;47.10;;;;;;5070786;28;20480;-70
2022/03/11 09:25:01;;;;;;;8.17;5.20;;;17.50;47.80;;;;;;5070500;28;20497;-70
2022/03/11 09:27:29;;;;;;;7.17;3.60;;;18.70;46.30;;;;;;5071321;28;20600;-70
2022/03/11 09:29:56;;;;;;;8.90;6.33;;;17.70;44.50;;;;;;5073769;28;20943;-70
2022/03/11 09:32:22;;;;;;;11.30;6.83;;;16.80;45.30;;;;;;5070364;28;20461;-70
2022/03/11 09:34:50;;;;;;;8.53;6.43;;;16.70;45.10;;;;;;5070358;28;20489;-70
2022/03/11 09:37:17;;;;;;;7.00;6.43;;;16.50;45.80;;;;;;5069608;28;20460;-69
2022/03/11 09:39:43;;;;;;;9.10;5.13;;;16.10;45.00;;;;;;5070134;28;20461;-69
2022/03/11 09:42:10;;;;;;;5.20;4.20;;;16.90;45.70;;;;;;5072220;28;20890;-69
2022/03/11 09:44:40;;;;;;;8.73;6.50;;;17.30;45.00;;;;;;5068064;28;21287;-70
2022/03/11 09:47:08;;;;;;;15.30;7.47;;;17.70;44.70;;;;;;5075438;28;20481;-70
2022/03/11 09:49:35;;;;;;;17.97;8.33;;;18.50;44.00;;;;;;5083311;28;21361;-70
2022/03/11 09:52:05;;;;;;;9.33;7.07;;;19.00;43.40;;;;;;5087223;28;20464;-70
2022/03/11 09:54:32;;;;;;;8.80;4.70;;;19.90;42.80;;;;;;5071761;28;20506;-70
2022/03/11 09:56:59;;;;;;;6.30;3.97;;;19.20;40.70;;;;;;5066144;28;20492;-70
2022/03/11 09:59:26;;;;;;;8.80;6.90;;;17.80;41.90;;;;;;5069699;28;20512;-70
2022/03/11 10:01:54;;;;;;;12.40;5.87;;;17.70;42.50;;;;;;5075610;28;20545;-69
2022/03/11 10:04:22;;;;;;;11.00;5.40;;;17.40;42.20;;;;;;5072836;28;20480;-70
2022/03/11 10:06:51;;;;;;;13.40;7.40;;;17.50;42.10;;;;;;5072668;28;20464;-71
2022/03/11 10:09:33;;;;;;;12.57;6.60;;;18.10;43.30;;;;;;5068081;28;20484;-70
2022/03/11 10:12:05;;;;;;;11.17;7.33;;;19.60;41.70;;;;;;5069037;28;20452;-69
2022/03/11 10:14:33;;;;;;;11.00;7.30;;;20.50;40.20;;;;;;5067783;28;20453;-69
2022/03/11 10:17:00;;;;;;;16.30;8.30;;;21.10;39.50;;;;;;5071763;28;20459;-69
2022/03/11 10:19:27;;;;;;;11.20;6.90;;;21.50;40.20;;;;;;5068454;28;20480;-70
2022/03/11 10:21:57;;;;;;;8.83;3.97;;;22.00;38.50;;;;;;5070053;28;20499;-69
2022/03/11 10:24:24;;;;;;;13.30;8.27;;;21.10;37.40;;;;;;5073435;28;20481;-69
2022/03/11 10:26:53;;;;;;;8.33;6.47;;;21.10;38.70;;;;;;5076884;28;20464;-69
2022/03/11 10:29:22;;;;;;;12.63;7.60;;;21.60;38.10;;;;;;5072125;28;20985;-69
2022/03/11 10:31:51;;;;;;;9.80;6.50;;;21.50;37.00;;;;;;5071925;28;20462;-70
2022/03/11 10:34:20;;;;;;;6.57;4.80;;;21.60;37.70;;;;;;5074224;28;20632;-69
2022/03/11 10:36:49;;;;;;;11.40;6.50;;;21.20;36.30;;;;;;5073472;28;22388;-70
2022/03/11 10:39:18;;;;;;;10.57;7.23;;;21.10;37.10;;;;;;5070577;28;20879;-70
2022/03/11 10:41:45;;;;;;;9.60;6.83;;;21.70;36.60;;;;;;5070327;28;20565;-71
2022/03/11 10:44:13;;;;;;;11.03;7.50;;;22.80;36.90;;;;;;5074559;28;20621;-70
2022/03/11 10:46:40;;;;;;;11.43;5.90;;;22.50;36.60;;;;;;5075007;28;20549;-71
2022/03/11 10:49:07;;;;;;;14.00;8.10;;;22.60;36.20;;;;;;5074219;27;20835;-70
2022/03/11 10:51:35;;;;;;;12.53;7.50;;;22.10;35.70;;;;;;5072527;28;20464;-69
2022/03/11 10:54:04;;;;;;;10.80;7.63;;;21.70;36.40;;;;;;5074670;28;20462;-69
2022/03/11 10:56:34;;;;;;;10.83;7.07;;;21.20;35.90;;;;;;5075892;28;20550;-69
2022/03/11 10:59:05;;;;;;;9.73;7.40;;;21.80;36.50;;;;;;5073254;28;21040;-70
2022/03/11 11:01:38;;;;;;;10.27;5.50;;;21.80;35.90;;;;;;5070408;28;20457;-68
2022/03/11 11:04:07;;;;;;;9.30;5.30;;;22.30;35.50;;;;;;5072040;28;20495;-71
2022/03/11 11:06:36;;;;;;;12.33;9.03;;;21.50;35.60;;;;;;5071061;28;20454;-70
2022/03/11 11:09:04;;;;;;;15.20;7.07;;;20.80;36.50;;;;;;5074262;28;20506;-72
2022/03/11 11:11:31;;;;;;;9.30;7.07;;;21.40;37.10;;;;;;5072317;28;20464;-70
2022/03/11 11:13:59;;;;;;;13.67;8.80;;;22.50;36.00;;;;;;5076876;28;20449;-69
2022/03/11 11:16:28;;;;;;;15.03;7.50;;;23.00;35.40;;;;;;5071421;28;20504;-70
2022/03/11 11:18:59;;;;;;;8.07;6.80;;;22.40;35.40;;;;;;5074625;28;20481;-69
2022/03/11 11:21:26;;;;;;;13.17;7.73;;;23.30;35.50;;;;;;5074065;28;20465;-70
2022/03/11 11:23:55;;;;;;;12.77;8.10;;;23.20;34.70;;;;;;5076823;27;20625;-69
2022/03/11 11:26:23;;;;;;;10.10;5.67;;;23.00;34.80;;;;;;5072413;28;21059;-70
2022/03/11 11:28:51;;;;;;;11.03;6.97;;;23.40;34.30;;;;;;5078810;28;20478;-70
2022/03/11 11:31:20;;;;;;;15.30;8.73;;;22.70;34.10;;;;;;5072559;27;20465;-71
2022/03/11 11:33:47;;;;;;;12.03;7.97;;;22.40;34.80;;;;;;5073886;28;21043;-70
2022/03/11 11:36:34;;;;;;;9.13;7.00;;;22.40;34.60;;;;;;5078334;28;20469;-70
2022/03/11 11:39:03;;;;;;;8.20;5.97;;;22.80;34.30;;;;;;5077129;28;20488;-69
2022/03/11 11:41:30;;;;;;;11.43;6.20;;;22.90;34.50;;;;;;5074041;28;20986;-69
2022/03/11 11:43:59;;;;;;;11.00;7.10;;;22.20;34.50;;;;;;5073036;28;21006;-69
2022/03/11 11:46:27;;;;;;;9.53;6.33;;;22.00;34.40;;;;;;5075508;28;21176;-69
2022/03/11 11:49:22;;;;;;;9.53;6.73;;;22.50;34.60;;;;;;5074658;28;20912;-69
2022/03/11 11:52:01;;;;;;;9.70;6.67;;;22.90;34.30;;;;;;5073601;28;20940;-69
2022/03/11 11:54:45;;;;;;;14.23;7.97;;;22.40;34.50;;;;;;5074154;28;20461;-69
2022/03/11 11:57:18;;;;;;;24.10;8.93;;;23.40;34.60;;;;;;5071834;28;20458;-69
2022/03/11 11:59:46;;;;;;;11.23;7.97;;;24.50;34.10;;;;;;5073365;28;21088;-69
2022/03/11 12:02:34;;;;;;;13.57;7.70;;;24.10;33.20;;;;;;5075025;27;20488;-70
2022/03/11 12:05:02;;;;;;;10.77;7.57;;;24.20;33.90;;;;;;5072242;28;20484;-69
2022/03/11 12:07:48;;;;;;;11.57;7.60;;;24.40;33.30;;;;;;5076483;28;20576;-69
2022/03/11 12:10:25;;;;;;;10.13;6.83;;;24.20;33.80;;;;;;5070018;28;20462;-70
2022/03/11 12:12:58;;;;;;;11.40;8.73;;;25.10;32.90;;;;;;5063799;28;20489;-70
2022/03/11 12:15:25;;;;;;;14.10;8.67;;;25.80;32.50;;;;;;5071137;28;20460;-70
2022/03/11 12:17:56;;;;;;;14.37;8.70;;;25.60;33.30;;;;;;5076801;28;20473;-70
2022/03/11 12:20:30;;;;;;;10.83;6.43;;;25.40;32.70;;;;;;5072530;28;20871;-70
2022/03/11 12:23:00;;;;;;;9.90;6.50;;;25.30;32.80;;;;;;5070093;28;20853;-70
2022/03/11 12:25:29;;;;;;;12.43;7.80;;;24.10;32.70;;;;;;5072857;28;21303;-70
2022/03/11 12:28:17;;;;;;;11.40;8.70;;;24.50;33.70;;;;;;5075107;28;20532;-70
2022/03/11 12:30:56;;;;;;;8.83;7.23;;;25.70;32.80;;;;;;5067952;28;20464;-71
2022/03/11 12:33:26;;;;;;;11.80;9.10;;;25.10;32.50;;;;;;5069047;28;20456;-71
2022/03/11 12:35:54;;;;;;;10.23;7.50;;;25.50;32.40;;;;;;5072199;28;20463;-69
2022/03/11 12:38:25;;;;;;;9.60;7.00;;;26.00;32.50;;;;;;5070391;28;21264;-69
2022/03/11 12:40:52;;;;;;;15.10;8.00;;;25.50;32.50;;;;;;5073705;28;20482;-69
2022/03/11 12:43:21;;;;;;;10.77;9.00;;;24.60;32.80;;;;;;5069198;28;20596;-70
2022/03/11 12:45:51;;;;;;;9.60;6.23;;;25.40;32.90;;;;;;5070968;28;22553;-69
2022/03/11 12:48:20;;;;;;;15.67;8.03;;;25.00;32.60;;;;;;5071519;28;20486;-69
2022/03/11 12:50:48;;;;;;;11.70;8.40;;;25.00;33.20;;;;;;5074378;28;20468;-69
2022/03/11 12:53:16;;;;;;;12.30;8.00;;;25.30;32.70;;;;;;5071427;28;20938;-69
2022/03/11 12:55:46;;;;;;;10.30;8.57;;;26.30;32.30;;;;;;5072181;28;20697;-72